createdAt,value
2023-04-22T00:00:17.230Z,6.88
2023-04-22T00:02:44.640Z,6.28
2023-04-22T00:05:15.068Z,7.35
2023-04-22T00:07:43.558Z,7.60
2023-04-22T00:10:11.677Z,8.10
2023-04-22T00:12:38.839Z,7.85
2023-04-22T00:15:06.671Z,8.20
2023-04-22T00:17:33.867Z,8.35
2023-04-22T00:20:01.557Z,7.82
2023-04-22T00:22:28.549Z,8.68
2023-04-22T00:24:55.613Z,7.90
2023-04-22T00:27:22.584Z,7.90
2023-04-22T00:29:49.583Z,8.52
2023-04-22T00:32:17.455Z,9.20
2023-04-22T00:34:44.355Z,8.27
2023-04-22T00:37:11.485Z,8.55
2023-04-22T00:39:39.980Z,8.18
2023-04-22T00:42:07.912Z,9.05
2023-04-22T00:44:36.566Z,8.95
2023-04-22T00:47:05.668Z,9.38
2023-04-22T00:49:34.783Z,9.18
2023-04-22T00:52:02.107Z,9.55
2023-04-22T00:54:29.641Z,9.52
2023-04-22T00:56:57.917Z,9.10
2023-04-22T00:59:26.831Z,9.82
2023-04-22T01:01:54.315Z,8.85
2023-04-22T01:04:23.150Z,9.55
2023-04-22T01:06:53.057Z,9.45
2023-04-22T01:09:23.103Z,9.10
2023-04-22T01:11:50.266Z,9.80
2023-04-22T01:14:17.205Z,9.90
2023-04-22T01:16:45.207Z,10.70
2023-04-22T01:19:13.243Z,10.05
2023-04-22T01:21:40.920Z,9.38
2023-04-22T01:24:08.812Z,9.05
2023-04-22T01:26:37.238Z,8.00
2023-04-22T01:29:06.089Z,9.05
2023-04-22T01:31:33.590Z,9.27
2023-04-22T01:34:00.976Z,9.95
2023-04-22T01:36:28.093Z,8.80
2023-04-22T01:38:55.635Z,8.52
2023-04-22T01:41:22.645Z,9.60
2023-04-22T01:43:50.657Z,9.40
2023-04-22T01:46:18.184Z,8.80
2023-04-22T01:48:50.526Z,8.77
2023-04-22T01:51:18.310Z,9.07
2023-04-22T01:53:45.274Z,9.25
2023-04-22T01:56:12.310Z,8.80
2023-04-22T01:58:40.584Z,9.02
2023-04-22T02:01:10.481Z,8.98
2023-04-22T02:03:38.410Z,8.02
2023-04-22T02:06:05.908Z,8.45
2023-04-22T02:08:32.892Z,8.75
2023-04-22T02:11:00.961Z,8.50
2023-04-22T02:13:41.244Z,8.73
2023-04-22T02:16:09.378Z,9.00
2023-04-22T02:18:36.598Z,8.30
2023-04-22T02:21:03.802Z,8.90
2023-04-22T02:23:31.208Z,8.75
2023-04-22T02:25:58.178Z,9.20
2023-04-22T02:28:25.119Z,9.30
2023-04-22T02:30:52.068Z,9.63
2023-04-22T02:33:19.080Z,8.73
2023-04-22T02:35:46.467Z,9.00
2023-04-22T02:38:18.532Z,9.20
2023-04-22T02:40:45.445Z,9.23
2023-04-22T02:43:12.525Z,9.93
2023-04-22T02:45:40.926Z,9.20
2023-04-22T02:48:11.768Z,9.05
2023-04-22T02:50:39.770Z,9.35
2023-04-22T02:53:08.151Z,9.70
2023-04-22T02:55:35.387Z,9.25
2023-04-22T02:58:02.492Z,9.68
2023-04-22T03:00:29.622Z,9.10
2023-04-22T03:02:56.873Z,9.90
2023-04-22T03:05:28.987Z,9.40
2023-04-22T03:07:56.068Z,9.50
2023-04-22T03:10:23.081Z,9.25
2023-04-22T03:12:51.018Z,9.60
2023-04-22T03:15:21.283Z,9.73
2023-04-22T03:17:49.207Z,9.57
2023-04-22T03:20:17.079Z,8.70
2023-04-22T03:22:44.178Z,9.07
2023-04-22T03:25:13.525Z,9.13
2023-04-22T03:27:45.258Z,8.95
2023-04-22T03:30:12.430Z,9.18
2023-04-22T03:32:39.399Z,9.40
2023-04-22T03:35:16.538Z,10.45
2023-04-22T03:37:46.179Z,9.15
2023-04-22T03:40:17.735Z,9.35
2023-04-22T03:42:44.952Z,9.40
2023-04-22T03:45:12.084Z,9.85
2023-04-22T03:47:44.895Z,10.10
2023-04-22T03:50:21.080Z,10.00
2023-04-22T03:52:49.912Z,9.98
2023-04-22T03:55:20.787Z,9.70
2023-04-22T03:57:50.526Z,8.60
2023-04-22T04:00:17.683Z,9.77
2023-04-22T04:02:51.167Z,10.13
2023-04-22T04:05:21.968Z,9.65
2023-04-22T04:07:48.937Z,9.38
2023-04-22T04:10:16.027Z,8.70
2023-04-22T04:12:43.512Z,9.57
2023-04-22T04:15:11.983Z,9.18
2023-04-22T04:17:39.991Z,9.90
2023-04-22T04:20:07.436Z,9.32
2023-04-22T04:22:36.175Z,9.20
2023-04-22T04:25:06.838Z,9.10
2023-04-22T04:27:39.422Z,9.63
2023-04-22T04:30:07.617Z,9.02
2023-04-22T04:32:45.857Z,8.85
2023-04-22T04:35:15.333Z,11.20
2023-04-22T04:37:47.324Z,9.57
2023-04-22T04:40:15.443Z,8.95
2023-04-22T04:43:08.813Z,9.82
2023-04-22T04:45:50.664Z,9.10
2023-04-22T04:48:27.588Z,10.20
2023-04-22T04:51:04.489Z,9.50
2023-04-22T04:53:34.259Z,9.68
2023-04-22T04:56:01.836Z,11.05
2023-04-22T04:58:35.126Z,9.85
2023-04-22T05:01:20.804Z,10.02
2023-04-22T05:03:49.021Z,10.75
2023-04-22T05:06:18.186Z,10.70
2023-04-22T05:09:08.263Z,11.48
2023-04-22T05:11:36.601Z,10.60
2023-04-22T05:14:10.868Z,11.20
2023-04-22T05:16:41.447Z,11.85
2023-04-22T05:19:10.303Z,11.05
2023-04-22T05:21:40.066Z,10.75
2023-04-22T05:24:07.525Z,10.43
2023-04-22T05:26:34.720Z,10.63
2023-04-22T05:29:08.060Z,9.57
2023-04-22T05:31:35.105Z,10.52
2023-04-22T05:34:02.139Z,9.77
2023-04-22T05:36:31.615Z,9.48
2023-04-22T05:38:59.448Z,9.57
2023-04-22T05:41:27.259Z,8.63
2023-04-22T05:43:56.469Z,8.93
2023-04-22T05:46:24.393Z,10.00
2023-04-22T05:48:51.929Z,9.50
2023-04-22T05:51:37.784Z,9.40
2023-04-22T05:54:05.229Z,9.77
2023-04-22T05:56:32.486Z,10.10
2023-04-22T05:58:59.621Z,9.40
2023-04-22T06:01:27.186Z,9.13
2023-04-22T06:06:30.745Z,9.18
2023-04-22T06:08:57.863Z,9.52
2023-04-22T06:11:24.826Z,9.05
2023-04-22T06:13:51.792Z,9.52
2023-04-22T06:16:19.499Z,8.60
2023-04-22T06:18:46.994Z,9.45
2023-04-22T06:21:14.876Z,8.85
2023-04-22T06:23:42.665Z,9.10
2023-04-22T06:26:09.792Z,10.80
2023-04-22T06:28:37.724Z,10.05
2023-04-22T06:31:10.367Z,10.00
2023-04-22T06:33:37.431Z,9.43
2023-04-22T06:36:05.182Z,9.98
2023-04-22T06:38:33.579Z,9.40
2023-04-22T06:41:21.700Z,8.95
2023-04-22T06:43:50.308Z,9.25
2023-04-22T06:46:36.281Z,10.15
2023-04-22T06:49:21.839Z,10.90
2023-04-22T18:49:45.640Z,11.95
2023-04-22T18:52:12.634Z,12.70
2023-04-22T18:54:39.858Z,12.45
2023-04-22T18:57:06.975Z,13.82
2023-04-22T18:59:34.005Z,12.05
2023-04-22T19:02:01.086Z,12.13
2023-04-22T19:04:28.105Z,11.57
2023-04-22T19:06:57.117Z,11.55
2023-04-22T19:09:24.319Z,12.02
2023-04-22T19:11:51.308Z,12.05
2023-04-22T19:14:18.800Z,12.00
2023-04-22T19:16:45.931Z,11.32
2023-04-22T19:19:12.892Z,11.60
2023-04-22T19:21:40.481Z,12.10
2023-04-22T19:24:07.814Z,12.60
2023-04-22T19:26:34.777Z,12.52
2023-04-22T19:29:01.999Z,11.43
2023-04-22T19:31:29.132Z,13.38
2023-04-22T19:33:56.196Z,12.98
2023-04-22T19:36:23.416Z,12.93
2023-04-22T19:38:50.355Z,12.68
2023-04-22T19:41:17.459Z,12.50
2023-04-22T19:43:44.556Z,12.27
2023-04-22T19:46:11.814Z,13.27
2023-04-22T19:48:39.008Z,12.13
2023-04-22T19:51:06.787Z,12.27
2023-04-22T19:53:34.980Z,12.93
2023-04-22T19:56:03.089Z,13.02
2023-04-22T19:58:31.634Z,12.45
2023-04-22T20:00:58.749Z,12.30
2023-04-22T20:03:26.541Z,12.95
2023-04-22T20:05:54.607Z,14.65
2023-04-22T20:08:26.907Z,13.82
2023-04-22T20:10:55.293Z,13.65
2023-04-22T20:13:22.684Z,14.15
2023-04-22T20:15:50.263Z,15.05
2023-04-22T20:18:17.744Z,17.38
2023-04-22T20:20:48.305Z,13.95
2023-04-22T20:23:16.990Z,20.67
2023-04-22T20:25:44.735Z,18.08
2023-04-22T20:28:11.985Z,15.80
2023-04-22T20:30:39.822Z,14.50
2023-04-22T20:33:07.052Z,14.52
2023-04-22T20:35:35.985Z,13.43
2023-04-22T20:38:03.733Z,15.50
2023-04-22T20:40:30.910Z,16.25
2023-04-22T20:43:01.036Z,14.52
2023-04-22T20:45:28.620Z,16.45
2023-04-22T20:47:58.078Z,16.38
2023-04-22T20:50:25.669Z,16.55
2023-04-22T20:52:53.261Z,16.75
2023-04-22T20:55:20.227Z,16.63
2023-04-22T20:57:47.148Z,16.40
2023-04-22T21:00:14.770Z,18.42
2023-04-22T21:02:42.556Z,16.45
2023-04-22T21:05:11.344Z,16.42
2023-04-22T21:07:42.156Z,18.13
2023-04-22T21:10:09.824Z,16.80
2023-04-22T21:12:38.194Z,17.20
2023-04-22T21:15:06.176Z,17.25
2023-04-22T21:17:35.337Z,17.08
2023-04-22T21:20:05.393Z,18.58
2023-04-22T21:22:32.748Z,17.40
2023-04-22T21:25:00.727Z,18.65
2023-04-22T21:27:27.892Z,20.20
2023-04-22T21:29:55.370Z,18.88
2023-04-22T21:32:22.288Z,19.73
2023-04-22T21:34:49.278Z,18.58
2023-04-22T21:37:16.227Z,18.98
2023-04-22T21:39:43.247Z,18.88
2023-04-22T21:42:10.541Z,19.90
2023-04-22T21:44:38.208Z,19.85
2023-04-22T21:47:05.855Z,23.90
2023-04-22T21:49:33.033Z,22.70
2023-04-22T21:52:00.017Z,20.10
2023-04-22T21:54:27.096Z,20.65
2023-04-22T21:56:54.065Z,21.02
2023-04-22T21:59:21.025Z,21.15
2023-04-22T22:01:48.033Z,23.52
2023-04-22T22:04:16.227Z,22.48
2023-04-22T22:06:44.950Z,21.95
2023-04-22T22:09:12.434Z,23.52
2023-04-22T22:11:39.460Z,23.23
2023-04-22T22:14:06.384Z,21.65
2023-04-22T22:16:33.539Z,22.70
2023-04-22T22:19:02.755Z,22.48
2023-04-22T22:21:29.943Z,22.38
2023-04-22T22:23:57.835Z,23.30
2023-04-22T22:26:24.922Z,24.38
2023-04-22T22:28:51.904Z,22.98
2023-04-22T22:31:19.027Z,25.30
2023-04-22T22:33:46.075Z,29.38
2023-04-22T22:36:13.032Z,25.50
2023-04-22T22:38:39.959Z,25.08
2023-04-22T22:41:06.912Z,24.48
2023-04-22T22:43:33.817Z,22.77
2023-04-22T22:46:00.891Z,24.35
2023-04-22T22:48:27.976Z,23.13
2023-04-22T22:50:56.645Z,23.15
2023-04-22T22:53:23.617Z,22.73
2023-04-22T22:55:50.700Z,24.02
2023-04-22T22:58:17.664Z,22.52
2023-04-22T23:00:44.605Z,23.35
2023-04-22T23:03:12.998Z,23.33
2023-04-22T23:05:40.041Z,25.30
2023-04-22T23:08:07.174Z,23.90
2023-04-22T23:10:34.091Z,22.30
2023-04-22T23:13:01.157Z,25.17
2023-04-22T23:15:28.298Z,24.98
2023-04-22T23:17:55.222Z,25.95
2023-04-22T23:20:23.675Z,26.08
2023-04-22T23:22:51.952Z,24.25
2023-04-22T23:25:19.567Z,24.52
2023-04-22T23:27:46.643Z,28.83
2023-04-22T23:30:14.008Z,25.35
2023-04-22T23:32:42.668Z,25.45
2023-04-22T23:35:12.735Z,25.80
2023-04-22T23:37:46.392Z,26.50
2023-04-22T23:40:13.803Z,24.98
2023-04-22T23:42:40.770Z,23.20
2023-04-22T23:45:08.456Z,26.33
2023-04-22T23:47:35.538Z,25.13
2023-04-22T23:50:03.458Z,24.92
2023-04-22T23:52:30.466Z,25.98
2023-04-22T23:54:57.752Z,25.52
2023-04-22T23:57:25.005Z,26.38
2023-04-22T23:59:52.186Z,25.15
